Time;durP1;ratioP1;P1;durP2;ratioP2;P2;SDS_P1;SDS_P2;PMS_P1;PMS_P2;Temp;Humidity;BMP_temperature;BMP_pressure;BME280_temperature;BME280_humidity;BME280_pressure;Samples;Min_cycle;Max_cycle;Signal;HPM_P1;HPM_P2
2022/04/04 00:01:20;;;;;;;4.87;4.13;;;;;;;2.52;78.47;100930.50;4993320;28;20219;-82
2022/04/04 00:03:46;;;;;;;6.77;4.20;;;;;;;2.52;78.46;100929.63;4993554;28;20724;-82
2022/04/04 00:06:13;;;;;;;6.40;5.00;;;;;;;2.51;78.33;100925.31;4973965;28;20228;-81
2022/04/04 00:08:40;;;;;;;5.43;4.77;;;;;;;2.50;79.09;100926.19;4984896;28;20693;-81
2022/04/04 00:11:07;;;;;;;5.30;4.33;;;;;;;2.48;79.02;100922.75;4993839;28;20640;-82
2022/04/04 00:13:34;;;;;;;5.80;5.20;;;;;;;2.47;78.92;100921.00;4993138;28;20678;-81
2022/04/04 00:16:01;;;;;;;6.20;5.30;;;;;;;2.46;79.32;100914.03;4993680;28;20940;-82
2022/04/04 00:18:28;;;;;;;6.13;5.00;;;;;;;2.45;79.54;100918.44;4992481;28;20219;-82
2022/04/04 00:20:55;;;;;;;5.60;5.10;;;;;;;2.44;79.35;100916.69;4993246;28;20446;-82
2022/04/04 00:23:21;;;;;;;5.67;4.50;;;;;;;2.42;79.11;100916.72;4993493;28;20215;-82
2022/04/04 00:25:49;;;;;;;5.47;4.77;;;;;;;2.43;79.08;100912.34;4992773;28;20223;-83
2022/04/04 00:28:16;;;;;;;6.00;4.73;;;;;;;2.41;79.13;100906.25;4992413;28;20220;-82
2022/04/04 00:30:43;;;;;;;5.53;4.93;;;;;;;2.39;79.67;100900.16;4986239;28;20208;-82
2022/04/04 00:33:11;;;;;;;5.83;5.23;;;;;;;2.39;79.67;100893.16;4996647;28;20831;-82
2022/04/04 00:35:38;;;;;;;6.43;5.00;;;;;;;2.39;79.30;100897.53;4993860;28;20199;-82
2022/04/04 00:38:08;;;;;;;6.37;5.07;;;;;;;2.39;79.92;100905.44;4993578;28;20238;-82
2022/04/04 00:40:35;;;;;;;5.87;4.87;;;;;;;2.39;80.11;100897.53;4994130;28;20208;-82
2022/04/04 00:43:01;;;;;;;6.53;4.70;;;;;;;2.40;79.88;100881.75;4993215;28;20212;-82
2022/04/04 00:45:28;;;;;;;7.00;5.00;;;;;;;2.40;79.80;100894.00;4993688;28;20218;-82
2022/04/04 00:47:55;;;;;;;5.37;4.80;;;;;;;2.42;79.93;100882.56;4993777;28;20203;-82
2022/04/04 00:50:23;;;;;;;6.57;5.97;;;;;;;2.42;79.50;100882.56;4974106;28;20232;-82
2022/04/04 00:52:50;;;;;;;9.13;6.00;;;;;;;2.42;79.95;100876.44;4973992;28;20712;-82
2022/04/04 00:55:17;;;;;;;6.60;5.47;;;;;;;2.41;79.29;100875.56;4973457;28;20630;-82
2022/04/04 00:57:44;;;;;;;6.43;5.10;;;;;;;2.42;79.68;100881.69;4974698;28;20204;-82
2022/04/04 01:00:12;;;;;;;6.47;5.50;;;;;;;2.40;80.26;100884.38;4981143;28;20231;-82
2022/04/04 01:02:39;;;;;;;7.93;5.50;;;;;;;2.40;80.20;100875.63;4993517;28;20242;-82
2022/04/04 01:05:07;;;;;;;6.30;5.70;;;;;;;2.39;79.68;100866.00;4993732;28;20220;-82
2022/04/04 01:07:37;;;;;;;7.20;5.80;;;;;;;2.40;80.07;100865.97;4994392;28;20565;-82
2022/04/04 01:10:05;;;;;;;6.47;5.20;;;;;;;2.40;79.82;100857.22;4992958;28;20235;-82
2022/04/04 01:12:32;;;;;;;6.47;5.43;;;;;;;2.39;80.29;100850.22;5008687;28;20242;-82
2022/04/04 01:14:58;;;;;;;7.30;5.50;;;;;;;2.39;79.75;100856.34;4998290;28;20200;-82
2022/04/04 01:17:25;;;;;;;8.20;5.57;;;;;;;2.40;79.78;100858.09;5001151;28;20199;-82
2022/04/04 01:19:52;;;;;;;8.60;5.43;;;;;;;2.37;79.78;100846.78;4998731;28;20223;-82
2022/04/04 01:22:19;;;;;;;6.47;5.77;;;;;;;2.37;80.31;100844.16;4976454;28;20218;-82
2022/04/04 01:24:47;;;;;;;9.07;5.97;;;;;;;2.37;79.81;100846.78;4995256;28;20295;-82
2022/04/04 01:27:13;;;;;;;5.80;5.20;;;;;;;2.36;80.16;100839.78;4995725;28;20234;-82
2022/04/04 01:29:40;;;;;;;7.50;5.47;;;;;;;2.34;80.33;100844.22;4996634;28;20245;-82
2022/04/04 01:32:08;;;;;;;5.80;5.17;;;;;;;2.32;79.99;100839.03;4979334;28;20200;-82
2022/04/04 01:34:35;;;;;;;6.27;4.97;;;;;;;2.32;79.81;100841.66;4996292;28;20203;-82
2022/04/04 01:37:02;;;;;;;6.20;5.10;;;;;;;2.32;79.89;100832.91;5014589;28;20205;-82
2022/04/04 01:39:29;;;;;;;6.20;5.60;;;;;;;2.31;79.74;100831.19;5001250;28;20250;-82
2022/04/04 01:41:56;;;;;;;7.20;5.47;;;;;;;2.28;79.96;100826.00;4983760;28;20775;-81
2022/04/04 01:44:23;;;;;;;7.37;5.43;;;;;;;2.28;80.35;100834.75;4984747;28;20578;-82
2022/04/04 01:46:49;;;;;;;7.17;5.30;;;;;;;2.27;80.05;100824.28;4995901;28;20234;-82
2022/04/04 01:49:16;;;;;;;5.73;4.93;;;;;;;2.26;80.69;100830.44;4981946;28;20232;-82
2022/04/04 01:51:43;;;;;;;6.60;5.67;;;;;;;2.25;79.89;100818.19;4988169;28;20216;-82
2022/04/04 01:54:10;;;;;;;5.93;5.33;;;;;;;2.24;80.55;100809.47;4996130;28;20278;-82
2022/04/04 01:56:36;;;;;;;8.47;5.10;;;;;;;2.25;79.96;100805.06;4995371;28;20219;-82
2022/04/04 01:59:05;;;;;;;7.30;5.63;;;;;;;2.25;80.23;100794.56;4995163;28;20227;-82
2022/04/04 02:01:34;;;;;;;5.80;5.13;;;;;;;2.24;80.61;100793.69;4995412;28;20203;-82
2022/04/04 02:04:01;;;;;;;6.07;5.57;;;;;;;2.24;80.47;100798.09;4986712;28;20664;-84
2022/04/04 02:06:28;;;;;;;6.53;5.57;;;;;;;2.24;80.14;100780.56;4976188;28;20228;-83
2022/04/04 02:08:55;;;;;;;6.57;5.47;;;;;;;2.25;80.85;100770.91;4995777;28;20231;-84
2022/04/04 02:11:23;;;;;;;8.30;6.53;;;;;;;2.24;80.32;100772.66;4996059;28;20208;-83
2022/04/04 02:13:50;;;;;;;8.33;6.90;;;;;;;2.23;80.66;100767.44;4977109;28;20330;-84
2022/04/04 02:16:18;;;;;;;8.97;7.40;;;;;;;2.23;80.75;100751.69;4981841;28;20607;-83
2022/04/04 02:18:45;;;;;;;7.97;7.07;;;;;;;2.24;80.93;100751.66;4996511;28;20258;-83
2022/04/04 02:21:11;;;;;;;10.07;8.80;;;;;;;2.24;80.51;100750.78;4996770;28;20266;-84
2022/04/04 02:23:38;;;;;;;10.23;8.23;;;;;;;2.25;80.88;100747.25;4995537;28;20206;-84
2022/04/04 02:26:05;;;;;;;9.93;8.90;;;;;;;2.26;80.53;100746.34;4995740;28;20227;-84
2022/04/04 02:28:32;;;;;;;9.13;8.20;;;;;;;2.25;80.64;100740.22;4996191;28;20227;-84
2022/04/04 02:30:58;;;;;;;11.93;9.50;;;;;;;2.26;81.22;100738.47;4996208;28;20242;-84
2022/04/04 02:33:26;;;;;;;9.23;8.20;;;;;;;2.28;80.94;100749.81;4995892;28;20573;-83
2022/04/04 02:35:54;;;;;;;10.33;8.67;;;;;;;2.29;80.96;100736.63;4995808;28;20213;-84
2022/04/04 02:38:23;;;;;;;12.37;9.10;;;;;;;2.29;80.78;100730.50;4995675;28;20230;-84
2022/04/04 02:40:50;;;;;;;12.63;8.77;;;;;;;2.31;81.34;100731.31;4995450;28;20210;-84
2022/04/04 02:43:17;;;;;;;10.10;8.03;;;;;;;2.33;81.14;100726.91;4994070;28;20204;-83
2022/04/04 02:45:44;;;;;;;11.53;8.60;;;;;;;2.34;81.17;100725.97;4997104;28;20207;-84
2022/04/04 02:48:10;;;;;;;10.87;8.57;;;;;;;2.34;81.00;100723.34;4982860;28;20607;-83
2022/04/04 02:50:39;;;;;;;9.87;8.20;;;;;;;2.34;81.00;100710.19;4977892;28;20219;-84
2022/04/04 02:53:05;;;;;;;12.10;8.77;;;;;;;2.32;80.82;100709.41;4994545;28;20214;-85
2022/04/04 02:58:16;;;;;;;11.30;9.23;;;;;;;2.30;80.90;100722.59;4994335;28;20203;-84
2022/04/04 03:00:43;;;;;;;10.43;8.37;;;;;;;2.32;80.68;100704.16;4994824;28;20207;-83
2022/04/04 03:03:10;;;;;;;11.97;8.93;;;;;;;2.32;80.62;100691.00;5011154;23;20225;-72
2022/04/04 03:05:37;;;;;;;12.57;9.63;;;;;;;2.32;80.44;100691.00;4985978;28;20302;-74
2022/04/04 03:08:06;;;;;;;12.60;9.57;;;;;;;2.32;80.85;100689.25;4989586;28;20235;-73
2022/04/04 03:10:33;;;;;;;12.00;9.43;;;;;;;2.33;80.74;100684.84;4989901;28;20270;-73
2022/04/04 03:13:02;;;;;;;10.43;9.33;;;;;;;2.34;80.42;100684.78;4989609;28;20727;-74
2022/04/04 03:15:29;;;;;;;14.53;10.30;;;;;;;2.35;80.21;100690.88;4989626;28;20241;-73
2022/04/04 03:17:57;;;;;;;12.50;10.13;;;;;;;2.34;80.30;100684.78;5229337;23;20681;-67
2022/04/04 03:20:25;;;;;;;11.67;10.40;;;;;;;2.34;80.57;100689.16;4969490;28;20291;-70
2022/04/04 03:22:54;;;;;;;12.20;10.47;;;;;;;2.28;80.19;100673.59;4969421;28;20214;-68
2022/04/04 03:25:22;;;;;;;12.27;10.23;;;;;;;2.30;80.37;100674.41;4970305;28;20290;-68
2022/04/04 03:27:50;;;;;;;15.63;11.87;;;;;;;2.29;80.47;100664.81;4969727;28;20254;-69
2022/04/04 03:30:20;;;;;;;13.33;11.57;;;;;;;2.27;79.97;100667.47;4970017;28;20212;-70
2022/04/04 03:32:48;;;;;;;13.03;11.73;;;;;;;2.27;79.97;100661.38;4968160;28;20216;-68
2022/04/04 03:35:16;;;;;;;14.77;11.67;;;;;;;2.25;79.93;100658.78;4965293;28;20302;-68
2022/04/04 03:37:44;;;;;;;15.17;12.07;;;;;;;2.26;80.50;100644.72;4968910;28;20326;-71
2022/04/04 03:40:13;;;;;;;13.90;11.67;;;;;;;2.26;79.95;100628.09;4961155;28;20204;-71
2022/04/04 03:42:42;;;;;;;14.57;13.07;;;;;;;2.23;80.21;100641.31;4962062;28;20209;-68
2022/04/04 03:45:11;;;;;;;14.97;13.07;;;;;;;2.24;79.96;100620.25;4965500;28;20208;-71
2022/04/04 03:47:38;;;;;;;13.30;11.90;;;;;;;2.23;80.39;100620.31;4967954;28;20370;-70
2022/04/04 03:50:06;;;;;;;13.47;12.07;;;;;;;2.23;80.33;100617.69;4963769;28;20271;-71
2022/04/04 03:52:33;;;;;;;13.53;10.60;;;;;;;2.22;80.13;100614.19;4959812;28;20207;-71
2022/04/04 03:55:01;;;;;;;12.77;11.10;;;;;;;2.20;79.91;100613.38;4958260;28;20205;-70
2022/04/04 03:57:28;;;;;;;12.43;11.07;;;;;;;2.18;80.07;100609.91;4965282;28;20302;-70
2022/04/04 03:59:56;;;;;;;13.73;10.67;;;;;;;2.17;79.80;100612.59;4966606;28;20212;-70
2022/04/04 04:02:23;;;;;;;13.60;10.43;;;;;;;2.18;80.20;100603.81;4964070;28;20295;-70
2022/04/04 04:04:49;;;;;;;12.50;10.97;;;;;;;2.17;80.04;100610.81;4967126;28;20279;-72
2022/04/04 04:07:18;;;;;;;13.03;9.57;;;;;;;2.17;79.47;100599.47;4961131;28;20236;-70
2022/04/04 04:09:45;;;;;;;10.83;9.37;;;;;;;2.18;79.89;100590.66;4963177;28;20211;-70
2022/04/04 04:12:15;;;;;;;11.27;9.40;;;;;;;2.15;79.93;100589.00;4963059;28;20236;-70
2022/04/04 04:14:41;;;;;;;8.77;7.67;;;;;;;2.16;80.11;100584.59;4964932;28;20201;-69
2022/04/04 04:17:13;;;;;;;9.97;8.13;;;;;;;2.15;79.64;100585.53;4962410;28;20266;-70
2022/04/04 04:22:24;;;;;;;9.53;8.33;;;;;;;2.16;79.53;100574.09;4962006;28;20878;-69
2022/04/04 04:24:51;;;;;;;11.83;9.23;;;;;;;2.17;79.67;100571.41;4962371;28;20637;-69
2022/04/04 04:27:18;;;;;;;11.50;9.20;;;;;;;2.17;79.88;100565.31;4962906;28;20334;-71
2022/04/04 04:29:44;;;;;;;10.17;9.07;;;;;;;2.17;79.28;100560.91;4965537;28;20295;-70
2022/04/04 04:32:13;;;;;;;7.83;6.43;;;;;;;2.23;79.06;100552.84;4962734;28;20209;-70
2022/04/04 04:34:40;;;;;;;10.30;9.00;;;;;;;2.22;79.05;100550.25;4964548;28;20617;-70
2022/04/04 04:37:07;;;;;;;15.43;10.50;;;;;;;2.23;79.02;100544.97;4962840;28;20259;-70
2022/04/04 04:39:33;;;;;;;12.67;10.60;;;;;;;2.23;79.29;100544.09;4957534;28;20322;-69
2022/04/04 04:42:00;;;;;;;13.97;11.20;;;;;;;2.22;78.79;100543.25;4959612;28;20287;-70
2022/04/04 04:44:27;;;;;;;17.47;10.70;;;;;;;2.22;78.96;100543.25;4954000;28;20259;-69
2022/04/04 04:46:53;;;;;;;13.53;10.67;;;;;;;2.21;79.03;100538.91;4966446;28;20311;-70
2022/04/04 04:49:22;;;;;;;16.00;11.00;;;;;;;2.23;79.24;100537.09;4972072;28;20208;-70
2022/04/04 04:51:49;;;;;;;14.47;11.13;;;;;;;2.24;79.00;100525.66;4971789;28;20208;-71
2022/04/04 04:54:16;;;;;;;11.03;9.57;;;;;;;2.23;78.74;100508.19;4970250;28;20284;-70
2022/04/04 04:56:43;;;;;;;14.10;10.37;;;;;;;2.23;78.74;100510.81;4968839;28;20224;-69
2022/04/04 04:59:10;;;;;;;11.60;10.40;;;;;;;2.23;78.87;100521.31;4969746;28;20211;-70
2022/04/04 05:01:37;;;;;;;12.73;11.00;;;;;;;2.25;78.60;100509.00;4957931;28;20208;-69
2022/04/04 05:04:04;;;;;;;12.13;9.63;;;;;;;2.25;79.00;100510.75;4954085;28;20219;-71
2022/04/04 05:06:32;;;;;;;12.07;9.70;;;;;;;2.25;78.62;100502.88;4953399;29;20220;-70
2022/04/04 05:09:00;;;;;;;13.13;9.93;;;;;;;2.26;78.27;100502.84;4953764;28;20232;-68
2022/04/04 05:11:26;;;;;;;12.53;10.10;;;;;;;2.26;78.48;100483.59;4966173;28;20686;-70
2022/04/04 05:13:53;;;;;;;12.13;8.60;;;;;;;2.29;78.24;100486.13;4961115;28;20229;-69
2022/04/04 05:16:20;;;;;;;10.30;8.67;;;;;;;2.31;77.81;100494.81;4960613;28;20255;-69
2022/04/04 05:18:47;;;;;;;10.03;8.27;;;;;;;2.32;78.10;100484.25;4972726;28;20315;-71
2022/04/04 05:21:13;;;;;;;10.03;8.97;;;;;;;2.35;78.31;100481.50;4971990;28;20702;-69
2022/04/04 05:23:41;;;;;;;9.77;8.50;;;;;;;2.38;77.67;100478.78;4971375;28;20288;-71
2022/04/04 05:26:08;;;;;;;10.60;7.90;;;;;;;2.40;77.59;100474.34;4960553;28;20209;-71
2022/04/04 05:28:35;;;;;;;8.60;7.70;;;;;;;2.43;77.23;100473.38;4952704;29;20527;-70
2022/04/04 05:31:04;;;;;;;8.37;6.77;;;;;;;2.47;77.09;100469.75;4971768;28;20705;-70
2022/04/04 05:33:31;;;;;;;8.97;7.90;;;;;;;2.49;76.92;100462.69;4967703;28;20207;-71
2022/04/04 05:35:58;;;;;;;8.13;6.73;;;;;;;2.49;76.65;100473.19;4953398;29;20220;-70
2022/04/04 05:38:25;;;;;;;9.90;7.60;;;;;;;2.52;76.35;100452.03;4952682;29;20241;-70
2022/04/04 05:40:53;;;;;;;9.17;7.07;;;;;;;2.55;76.39;100457.19;4954092;28;20258;-69
2022/04/04 05:43:19;;;;;;;10.37;8.07;;;;;;;2.59;76.34;100457.94;4959949;28;20288;-70
2022/04/04 05:45:49;;;;;;;8.60;6.27;;;;;;;2.62;75.73;100463.13;4962650;28;20291;-70
2022/04/04 05:48:15;;;;;;;8.90;6.87;;;;;;;2.63;75.55;100457.81;4963692;28;20283;-69
2022/04/04 05:50:42;;;;;;;8.67;6.33;;;;;;;2.63;75.64;100441.19;4967483;28;20303;-69
2022/04/04 05:53:09;;;;;;;7.77;6.80;;;;;;;2.64;74.91;100443.75;4963457;28;20282;-71
2022/04/04 05:55:35;;;;;;;8.07;6.23;;;;;;;2.69;74.47;100439.16;4971508;28;20797;-70
2022/04/04 05:58:03;;;;;;;8.60;6.83;;;;;;;2.72;74.79;100439.06;4970800;28;20232;-70
2022/04/04 06:00:30;;;;;;;9.17;6.87;;;;;;;2.77;74.30;100436.28;4971974;28;20308;-69
2022/04/04 06:02:57;;;;;;;6.90;5.87;;;;;;;2.78;74.19;100432.75;4971850;28;20209;-70
2022/04/04 06:05:24;;;;;;;7.60;6.13;;;;;;;2.79;73.67;100429.22;4954331;28;20216;-71
2022/04/04 06:07:50;;;;;;;6.30;5.60;;;;;;;2.81;73.54;100419.50;4968655;28;20299;-70
2022/04/04 06:10:17;;;;;;;7.47;6.17;;;;;;;2.85;73.67;100413.22;4971691;28;20212;-70
2022/04/04 06:12:44;;;;;;;6.47;5.40;;;;;;;2.88;73.34;100413.09;4971873;28;20217;-69
2022/04/04 06:15:14;;;;;;;8.47;6.47;;;;;;;2.89;72.76;100404.28;4971702;28;20216;-69
2022/04/04 06:17:42;;;;;;;9.27;6.27;;;;;;;2.92;72.23;100395.44;4970393;28;20247;-70
2022/04/04 06:20:10;;;;;;;7.93;5.83;;;;;;;2.96;72.04;100392.66;4969022;28;20681;-71
2022/04/04 06:22:37;;;;;;;7.70;5.43;;;;;;;3.01;71.41;100385.44;4954405;28;20216;-69
2022/04/04 06:25:05;;;;;;;6.30;5.40;;;;;;;3.06;70.98;100377.38;4952364;28;20201;-70
2022/04/04 06:27:31;;;;;;;6.30;5.43;;;;;;;3.12;71.10;100379.78;4955483;28;20236;-72
2022/04/04 06:29:59;;;;;;;6.97;5.57;;;;;;;3.18;70.46;100376.06;4964573;28;20449;-69
2022/04/04 06:32:27;;;;;;;8.53;6.13;;;;;;;3.18;69.85;100358.50;4966239;28;20212;-71
2022/04/04 06:34:54;;;;;;;7.23;5.90;;;;;;;3.22;69.58;100360.13;4959800;28;20701;-71
2022/04/04 06:37:20;;;;;;;7.87;5.47;;;;;;;3.24;68.96;100374.06;4962689;28;20225;-70
2022/04/04 06:39:47;;;;;;;7.23;5.53;;;;;;;3.29;68.89;100356.31;4966787;28;20308;-72
2022/04/04 06:42:14;;;;;;;8.23;6.07;;;;;;;3.35;69.01;100358.72;4963813;28;20706;-69
2022/04/04 06:44:42;;;;;;;6.93;5.03;;;;;;;3.42;68.29;100336.50;4966994;28;20751;-69
2022/04/04 06:47:09;;;;;;;8.07;6.17;;;;;;;3.43;67.70;100334.72;4963271;28;20319;-68
2022/04/04 06:49:37;;;;;;;8.40;6.03;;;;;;;3.46;67.68;100337.25;4963833;28;20639;-69
2022/04/04 06:52:04;;;;;;;8.70;6.17;;;;;;;3.51;67.73;100324.75;4967398;28;20287;-69
2022/04/04 06:54:31;;;;;;;8.90;6.17;;;;;;;3.54;66.39;100329.06;4967913;28;20303;-69
2022/04/04 06:56:57;;;;;;;6.33;4.73;;;;;;;3.60;66.37;100327.00;4962929;28;20232;-69
2022/04/04 06:59:25;;;;;;;7.00;5.77;;;;;;;3.63;66.80;100302.34;4968164;28;20196;-69
2022/04/04 07:01:51;;;;;;;6.73;5.53;;;;;;;3.68;66.03;100303.03;4967332;28;20196;-69
2022/04/04 07:04:18;;;;;;;6.87;5.30;;;;;;;3.72;65.61;100297.56;4967863;28;20228;-70
2022/04/04 07:06:46;;;;;;;6.43;5.47;;;;;;;3.81;64.57;100304.22;4962358;28;20200;-69
2022/04/04 07:09:12;;;;;;;7.80;5.67;;;;;;;3.87;64.98;100288.19;4966633;28;20220;-69
2022/04/04 07:11:39;;;;;;;6.23;4.40;;;;;;;3.93;64.41;100280.03;4968556;28;20205;-69
2022/04/04 07:14:06;;;;;;;7.33;5.47;;;;;;;3.97;64.31;100273.69;4964059;28;20207;-69
2022/04/04 07:16:33;;;;;;;6.07;5.10;;;;;;;4.01;64.54;100277.06;4961858;28;20219;-71
2022/04/04 07:18:59;;;;;;;5.70;5.07;;;;;;;4.07;64.25;100279.44;4952203;28;20208;-69
2022/04/04 07:21:28;;;;;;;7.23;5.40;;;;;;;4.12;63.69;100262.47;4964735;28;20207;-69
2022/04/04 07:23:55;;;;;;;6.93;5.57;;;;;;;4.13;63.22;100261.56;4964377;28;20310;-69
2022/04/04 07:26:23;;;;;;;7.90;4.63;;;;;;;4.17;63.46;100270.19;4963966;28;20223;-70
2022/04/04 07:28:49;;;;;;;7.03;5.00;;;;;;;4.21;62.98;100255.97;4962665;28;20228;-70
2022/04/04 07:31:16;;;;;;;7.27;5.17;;;;;;;4.24;63.30;100257.63;4966915;28;20200;-69
2022/04/04 07:33:42;;;;;;;5.53;3.40;;;;;;;4.29;61.80;100245.13;4966313;28;20212;-70
2022/04/04 07:36:11;;;;;;;7.30;5.67;;;;;;;4.35;62.38;100252.72;4967344;28;20196;-69
2022/04/04 07:38:38;;;;;;;6.87;5.43;;;;;;;4.34;61.46;100243.09;4967244;28;20216;-69
2022/04/04 07:41:06;;;;;;;6.33;5.00;;;;;;;4.35;61.10;100242.19;4967322;28;20200;-70
2022/04/04 07:43:32;;;;;;;3.70;3.13;;;;;;;4.43;61.44;100240.06;4965799;28;20604;-69
2022/04/04 07:45:59;;;;;;;6.93;4.90;;;;;;;4.45;61.35;100248.78;4967272;28;20673;-70
2022/04/04 07:48:26;;;;;;;7.67;5.10;;;;;;;4.47;61.02;100233.75;4967002;28;20224;-69
2022/04/04 07:50:52;;;;;;;5.10;3.90;;;;;;;4.52;60.81;100229.09;4966607;28;20225;-70
2022/04/04 07:53:19;;;;;;;6.23;5.30;;;;;;;4.56;60.68;100229.81;4966118;28;20616;-70
2022/04/04 07:55:45;;;;;;;5.90;4.93;;;;;;;4.58;61.12;100207.75;4959531;28;20216;-70
2022/04/04 07:58:16;;;;;;;6.37;4.97;;;;;;;4.58;60.48;100210.38;4961039;28;20220;-69
2022/04/04 08:00:43;;;;;;;6.20;4.50;;;;;;;4.62;59.76;100211.94;4965379;28;20211;-69
2022/04/04 08:03:09;;;;;;;8.03;4.90;;;;;;;4.65;60.01;100197.78;4960955;28;20205;-70
2022/04/04 08:05:36;;;;;;;7.50;4.97;;;;;;;4.69;59.79;100205.44;4959307;28;20204;-69
2022/04/04 08:08:02;;;;;;;5.90;4.97;;;;;;;4.69;59.35;100186.13;4960865;28;20234;-69
2022/04/04 08:10:29;;;;;;;5.97;5.17;;;;;;;4.74;59.42;100185.00;4960878;28;20223;-69
2022/04/04 08:12:55;;;;;;;5.90;4.50;;;;;;;4.78;59.47;100162.81;4960086;28;20543;-69
2022/04/04 08:15:23;;;;;;;5.73;4.80;;;;;;;4.83;59.19;100176.66;4958353;28;20266;-70
2022/04/04 08:17:50;;;;;;;6.23;5.63;;;;;;;4.87;58.75;100165.00;4959501;28;20235;-70
2022/04/04 08:20:17;;;;;;;6.20;5.60;;;;;;;4.88;58.64;100165.88;4957372;28;20218;-70
2022/04/04 08:22:45;;;;;;;7.00;4.40;;;;;;;4.89;58.27;100151.75;4955191;28;20208;-70
2022/04/04 08:25:13;;;;;;;7.90;5.33;;;;;;;4.96;58.28;100147.91;4963748;28;20239;-71
2022/04/04 08:27:40;;;;;;;7.40;5.13;;;;;;;5.01;58.41;100145.03;4950771;28;20346;-68
2022/04/04 08:30:10;;;;;;;6.50;5.20;;;;;;;5.08;58.16;100141.16;4953011;28;20717;-69
2022/04/04 08:32:38;;;;;;;5.63;4.50;;;;;;;5.09;57.84;100142.88;4956966;28;20208;-69
2022/04/04 08:35:07;;;;;;;7.13;4.80;;;;;;;5.11;57.75;100135.75;4958729;28;20272;-70
2022/04/04 08:37:34;;;;;;;5.87;5.13;;;;;;;5.12;56.70;100129.53;4956476;28;20237;-70
2022/04/04 08:40:03;;;;;;;7.07;4.97;;;;;;;5.17;57.03;100112.53;4959946;28;20208;-71
2022/04/04 08:42:30;;;;;;;6.50;4.60;;;;;;;5.20;56.62;100130.00;4959707;28;20211;-70
2022/04/04 08:44:58;;;;;;;6.30;4.40;;;;;;;5.21;56.19;100110.59;4957699;28;20211;-70
2022/04/04 08:47:25;;;;;;;5.23;4.40;;;;;;;5.28;55.57;100111.13;4964456;28;20311;-70
2022/04/04 08:49:55;;;;;;;5.90;4.27;;;;;;;5.27;55.14;100098.88;4954921;28;20774;-70
2022/04/04 08:52:23;;;;;;;4.20;3.80;;;;;;;5.33;55.53;100104.72;4961392;28;20291;-71
2022/04/04 08:54:50;;;;;;;6.70;4.10;;;;;;;5.41;55.52;100091.09;4963086;28;20219;-71
2022/04/04 08:57:17;;;;;;;4.70;4.20;;;;;;;5.44;54.20;100094.44;4960986;28;20259;-69
2022/04/04 08:59:46;;;;;;;5.57;3.67;;;;;;;5.39;52.97;100070.03;4953630;28;20204;-70
2022/04/04 09:02:13;;;;;;;4.13;3.73;;;;;;;5.47;53.73;100081.09;4964035;28;20222;-69
2022/04/04 09:04:41;;;;;;;8.37;3.50;;;;;;;5.53;53.82;100075.50;4964538;28;20236;-71
2022/04/04 09:07:10;;;;;;;4.97;3.60;;;;;;;5.57;53.46;100060.31;4964916;28;20319;-69
2022/04/04 09:09:41;;;;;;;5.60;4.20;;;;;;;5.62;53.41;100054.81;4964395;28;20303;-69
2022/04/04 09:12:10;;;;;;;4.23;3.60;;;;;;;5.65;52.83;100046.72;4967323;28;20220;-69
2022/04/04 09:14:42;;;;;;;4.40;3.50;;;;;;;5.68;53.19;100050.06;4967182;28;20219;-70
2022/04/04 09:17:10;;;;;;;3.43;2.70;;;;;;;5.73;52.70;100032.16;4967627;28;20244;-70
2022/04/04 09:19:37;;;;;;;4.07;3.37;;;;;;;5.74;52.47;100001.31;4999458;23;20263;-72
2022/04/04 09:22:10;;;;;;;5.93;3.67;;;;;;;5.74;52.59;100025.09;4986099;28;20667;-72
2022/04/04 09:24:51;;;;;;;4.73;3.93;;;;;;;5.71;52.35;100015.56;4990276;28;20219;-72
2022/04/04 09:27:23;;;;;;;5.00;3.90;;;;;;;5.71;52.81;99996.22;4989559;28;20290;-74
2022/04/04 09:29:52;;;;;;;5.50;4.10;;;;;;;5.77;52.93;100003.78;4987185;28;20770;-72
2022/04/04 09:32:22;;;;;;;5.77;5.17;;;;;;;5.77;52.93;99993.22;4981126;28;20263;-71
2022/04/04 09:35:01;;;;;;;5.10;3.80;;;;;;;5.80;53.61;100001.00;4987566;28;20215;-70
2022/04/04 09:37:33;;;;;;;6.17;4.23;;;;;;;5.75;53.76;99995.94;4986748;28;20266;-71
2022/04/04 09:40:07;;;;;;;5.60;4.07;;;;;;;5.70;54.64;99982.16;4985944;28;20307;-71
2022/04/04 09:42:34;;;;;;;5.67;4.50;;;;;;;5.70;55.23;99973.38;4984798;28;20225;-70
2022/04/04 09:45:03;;;;;;;5.00;4.20;;;;;;;5.73;55.71;99960.81;4988645;28;20402;-71
2022/04/04 09:47:53;;;;;;;4.40;4.00;;;;;;;5.73;56.48;99974.03;4988600;28;20236;-72
2022/04/04 09:50:34;;;;;;;5.37;4.67;;;;;;;5.67;58.00;99939.19;4980909;28;20224;-71
2022/04/04 09:53:03;;;;;;;6.97;4.80;;;;;;;5.59;58.57;99926.38;4987583;28;20286;-71
2022/04/04 09:55:31;;;;;;;5.07;3.90;;;;;;;5.52;59.56;99922.38;4990304;28;20242;-71
2022/04/04 09:58:00;;;;;;;5.60;4.63;;;;;;;5.54;59.61;99910.81;4988562;28;20744;-71
2022/04/04 10:00:27;;;;;;;5.50;5.00;;;;;;;5.56;59.92;99914.19;4987998;28;20227;-72
2022/04/04 10:02:56;;;;;;;5.50;5.00;;;;;;;5.61;60.19;99913.94;4989151;28;20215;-70
2022/04/04 10:05:25;;;;;;;9.53;5.23;;;;;;;5.57;59.94;99886.00;4987737;28;20216;-72
2022/04/04 10:07:55;;;;;;;6.60;5.17;;;;;;;5.52;59.74;99875.69;4986661;28;20216;-71
2022/04/04 10:10:26;;;;;;;6.03;5.03;;;;;;;5.49;60.20;99870.59;4985920;28;20238;-71
2022/04/04 10:12:53;;;;;;;5.67;4.70;;;;;;;5.53;60.82;99868.63;4988937;28;20703;-71
2022/04/04 10:15:20;;;;;;;8.17;6.00;;;;;;;5.54;61.23;99863.25;4988792;28;20203;-71
2022/04/04 10:17:47;;;;;;;6.47;4.93;;;;;;;5.56;60.97;99865.78;4988796;28;20243;-71
2022/04/04 10:20:18;;;;;;;5.30;4.57;;;;;;;5.54;60.37;99846.56;4977910;28;20231;-70
2022/04/04 10:22:48;;;;;;;7.03;5.50;;;;;;;5.56;60.84;99837.59;4984937;28;20298;-72
2022/04/04 10:25:17;;;;;;;5.87;5.27;;;;;;;5.57;60.56;99827.88;4985050;28;20526;-71
2022/04/04 10:27:47;;;;;;;6.60;5.30;;;;;;;5.62;60.43;99844.34;4986616;28;20208;-72
2022/04/04 10:30:16;;;;;;;4.57;4.13;;;;;;;5.60;60.41;99822.44;4985501;28;21001;-70
2022/04/04 10:32:49;;;;;;;8.30;5.03;;;;;;;5.66;61.11;99823.88;4984502;28;20222;-72
2022/04/04 10:35:20;;;;;;;7.63;6.10;;;;;;;5.63;61.33;99813.50;4982395;28;20294;-71
2022/04/04 10:37:47;;;;;;;8.60;6.33;;;;;;;5.64;61.75;99808.13;4984987;28;20215;-71
2022/04/04 10:40:22;;;;;;;8.13;6.87;;;;;;;5.64;61.67;99807.25;4988081;28;20576;-71
2022/04/04 10:43:12;;;;;;;6.60;5.70;;;;;;;5.69;61.84;99792.03;4981369;28;20203;-70
2022/04/04 10:45:55;;;;;;;10.37;7.20;;;;;;;5.73;61.18;99810.22;4987611;28;20212;-71
2022/04/04 10:48:28;;;;;;;8.53;6.17;;;;;;;5.78;61.12;99788.84;4986240;28;20318;-72
2022/04/04 10:50:55;;;;;;;6.93;5.50;;;;;;;5.83;60.71;99778.88;4985890;28;20223;-71
2022/04/04 10:53:36;;;;;;;6.43;5.60;;;;;;;5.85;61.19;99772.56;4982168;28;20337;-72
2022/04/04 10:56:06;;;;;;;7.23;5.13;;;;;;;5.80;60.60;99781.69;4986061;28;20290;-70
2022/04/04 10:58:34;;;;;;;8.70;6.13;;;;;;;5.85;61.06;99771.69;4987172;28;20642;-72
2022/04/04 11:01:05;;;;;;;6.90;5.80;;;;;;;5.93;61.30;99772.13;4987616;28;20291;-72
2022/04/04 11:03:34;;;;;;;7.53;5.77;;;;;;;5.97;61.74;99719.94;4984556;28;20230;-72
2022/04/04 11:09:01;;;;;;;7.43;5.90;;;;;;;5.97;61.60;99755.16;4985050;28;20249;-71
2022/04/04 11:11:44;;;;;;;6.73;6.00;;;;;;;5.95;61.85;99770.25;4984855;28;20427;-72
2022/04/04 11:14:12;;;;;;;10.53;6.33;;;;;;;5.92;63.04;99750.13;4985264;28;20661;-71
2022/04/04 11:17:30;;;;;;;6.50;5.80;;;;;;;5.84;63.24;99754.16;4991696;28;20580;-72
2022/04/04 11:20:02;;;;;;;8.87;6.40;;;;;;;5.81;63.81;99749.03;4979900;28;20247;-71
2022/04/04 11:22:30;;;;;;;9.63;7.50;;;;;;;5.66;65.19;99758.69;4980941;28;20336;-71
2022/04/04 11:25:03;;;;;;;10.40;6.70;;;;;;;5.64;65.66;99741.22;4979742;28;20303;-71
2022/04/04 11:27:30;;;;;;;7.57;6.53;;;;;;;5.63;66.11;99758.88;4980709;28;20203;-70
2022/04/04 11:29:59;;;;;;;8.17;5.50;;;;;;;5.62;66.79;99709.63;4978881;28;20318;-71
2022/04/04 11:32:28;;;;;;;8.53;7.73;;;;;;;5.53;67.06;99718.94;4981540;28;20298;-71
2022/04/04 11:34:57;;;;;;;8.53;6.97;;;;;;;5.50;67.59;99740.25;4981131;28;20207;-70
2022/04/04 11:37:26;;;;;;;10.07;7.00;;;;;;;5.42;67.91;99728.41;4982743;28;20677;-71
2022/04/04 11:40:03;;;;;;;8.40;6.37;;;;;;;5.37;68.63;99720.75;4985271;28;20239;-71
2022/04/04 11:42:30;;;;;;;7.07;6.17;;;;;;;5.29;69.33;99686.00;4984912;28;20324;-71
2022/04/04 11:44:59;;;;;;;7.60;6.90;;;;;;;5.24;69.91;99709.16;4983188;28;20741;-70